createdAt,value
2019-04-30T00:00:38.179Z,0.00
2019-04-30T00:01:36.156Z,0.00
2019-04-30T00:02:39.731Z,0.00
2019-04-30T00:03:35.315Z,0.00
2019-04-30T00:04:40.147Z,0.00
2019-04-30T00:05:35.258Z,0.00
2019-04-30T00:06:39.205Z,0.00
2019-04-30T00:07:35.699Z,0.00
2019-04-30T00:08:35.441Z,0.00
2019-04-30T00:09:35.176Z,0.00
2019-04-30T00:10:37.027Z,0.00
2019-04-30T00:11:36.300Z,0.00
2019-04-30T00:12:38.039Z,0.00
2019-04-30T00:13:35.873Z,0.00
2019-04-30T00:14:39.941Z,0.00
2019-04-30T00:15:35.691Z,0.00
2019-04-30T00:16:36.324Z,0.00
2019-04-30T00:17:35.883Z,0.00
2019-04-30T00:18:37.938Z,0.00
2019-04-30T00:19:35.901Z,0.00
2019-04-30T00:20:38.464Z,0.00
2019-04-30T00:21:36.099Z,0.00
2019-04-30T00:22:39.328Z,0.00
2019-04-30T00:23:35.985Z,0.00
2019-04-30T00:24:35.478Z,0.00
2019-04-30T00:25:35.190Z,0.00
2019-04-30T00:26:35.437Z,0.00
2019-04-30T00:27:35.632Z,0.00
2019-04-30T00:28:35.367Z,0.00
2019-04-30T00:29:35.571Z,0.00
2019-04-30T00:30:35.074Z,0.00
2019-04-30T00:31:34.972Z,0.00
2019-04-30T00:32:39.336Z,0.00
2019-04-30T00:33:35.381Z,0.00
2019-04-30T00:34:36.035Z,0.00
2019-04-30T00:35:35.524Z,0.00
2019-04-30T00:36:37.320Z,0.00
2019-04-30T00:37:35.262Z,0.00
2019-04-30T00:38:37.814Z,0.00
2019-04-30T00:39:35.518Z,0.00
2019-04-30T00:40:35.191Z,0.00
2019-04-30T00:41:35.354Z,0.00
2019-04-30T00:42:35.776Z,0.00
2019-04-30T00:43:35.343Z,0.00
2019-04-30T00:44:35.635Z,0.00
2019-04-30T00:45:35.377Z,0.00
2019-04-30T00:46:36.403Z,0.00
2019-04-30T00:47:35.163Z,0.00
2019-04-30T00:48:35.668Z,0.00
2019-04-30T00:49:35.044Z,0.00
2019-04-30T00:50:37.240Z,0.00
2019-04-30T00:51:35.479Z,0.00
2019-04-30T00:52:37.243Z,0.00
2019-04-30T00:53:35.922Z,0.00
2019-04-30T00:54:35.179Z,0.00
2019-04-30T00:55:40.221Z,0.00
2019-04-30T00:56:35.521Z,0.00
2019-04-30T00:57:37.269Z,0.00
2019-04-30T00:58:35.659Z,0.00
2019-04-30T00:59:35.040Z,0.00
2019-04-30T01:00:35.221Z,0.00
2019-04-30T01:01:39.234Z,0.00
2019-04-30T01:02:35.776Z,0.00
2019-04-30T01:03:35.210Z,0.00
2019-04-30T01:04:34.948Z,0.00
2019-04-30T01:05:35.375Z,0.00
2019-04-30T01:06:34.985Z,0.00
2019-04-30T01:07:35.444Z,0.00
2019-04-30T01:08:35.836Z,0.00
2019-04-30T01:09:35.407Z,0.00
2019-04-30T01:10:34.805Z,0.00
2019-04-30T01:11:35.543Z,0.00
2019-04-30T01:12:39.102Z,0.00
2019-04-30T01:13:34.318Z,0.00
2019-04-30T01:14:34.320Z,0.00
2019-04-30T01:15:34.312Z,0.00
2019-04-30T01:16:34.358Z,0.00
2019-04-30T01:17:34.302Z,0.00
2019-04-30T01:18:34.305Z,0.00
2019-04-30T01:19:34.300Z,0.00
2019-04-30T01:20:34.293Z,0.00
2019-04-30T01:21:34.316Z,0.00
2019-04-30T01:22:34.285Z,0.00
2019-04-30T01:23:34.278Z,0.00
2019-04-30T01:24:34.281Z,0.00
2019-04-30T01:25:34.310Z,0.00
2019-04-30T01:26:34.275Z,0.00
2019-04-30T01:27:34.269Z,0.00
2019-04-30T01:28:34.285Z,0.00
2019-04-30T01:29:41.454Z,0.00
2019-04-30T01:30:34.285Z,0.00
2019-04-30T01:31:37.565Z,0.00
2019-04-30T01:32:34.246Z,0.00
2019-04-30T01:33:35.632Z,0.00
2019-04-30T01:34:34.243Z,0.00
2019-04-30T01:35:34.265Z,0.00
2019-04-30T01:36:34.231Z,0.00
2019-04-30T01:37:34.229Z,0.00
2019-04-30T01:38:34.226Z,0.00
2019-04-30T01:39:34.225Z,0.00
2019-04-30T01:40:34.245Z,0.00
2019-04-30T01:41:34.214Z,0.00
2019-04-30T01:42:34.212Z,0.00
2019-04-30T01:43:34.722Z,0.00
2019-04-30T01:44:34.204Z,0.00
2019-04-30T01:45:34.229Z,0.00
2019-04-30T01:46:34.194Z,0.00
2019-04-30T01:47:34.198Z,0.00
2019-04-30T01:48:34.187Z,0.00
2019-04-30T01:49:41.948Z,0.00
2019-04-30T01:50:38.734Z,0.00
2019-04-30T01:51:34.180Z,0.00
2019-04-30T01:52:35.211Z,0.00
2019-04-30T01:53:34.167Z,0.00
2019-04-30T01:54:34.168Z,0.00
2019-04-30T01:55:34.188Z,0.00
2019-04-30T01:56:34.183Z,0.00
2019-04-30T01:57:34.154Z,0.00
2019-04-30T01:58:34.147Z,0.00
2019-04-30T01:59:34.157Z,0.00
2019-04-30T02:00:34.148Z,0.00
2019-04-30T02:01:34.163Z,0.00
2019-04-30T02:02:34.132Z,0.00
2019-04-30T02:03:34.135Z,0.00
2019-04-30T02:04:34.129Z,0.00
2019-04-30T02:05:34.123Z,0.00
2019-04-30T02:06:34.162Z,0.00
2019-04-30T02:07:34.123Z,0.00
2019-04-30T02:08:34.118Z,0.00
2019-04-30T02:09:34.115Z,0.00
2019-04-30T02:10:34.111Z,0.00
2019-04-30T02:11:34.127Z,0.00
2019-04-30T02:12:34.099Z,0.00
2019-04-30T02:13:34.502Z,0.00
2019-04-30T02:14:34.091Z,0.00
2019-04-30T02:15:34.088Z,0.00
2019-04-30T02:16:34.109Z,0.00
2019-04-30T02:17:34.075Z,0.00
2019-04-30T02:18:34.077Z,0.00
2019-04-30T02:19:34.065Z,0.00
2019-04-30T02:20:34.091Z,0.00
2019-04-30T02:21:34.059Z,0.00
2019-04-30T02:22:34.057Z,0.00
2019-04-30T02:23:34.059Z,0.00
2019-04-30T02:24:34.047Z,0.00
2019-04-30T02:25:34.072Z,0.00
2019-04-30T02:26:34.039Z,0.00
2019-04-30T02:27:34.036Z,0.00
2019-04-30T02:28:34.032Z,0.00
2019-04-30T02:29:34.027Z,0.00
2019-04-30T02:30:34.054Z,0.00
2019-04-30T02:31:34.022Z,0.00
2019-04-30T02:32:34.017Z,0.00
2019-04-30T02:33:34.010Z,0.00
2019-04-30T02:34:34.008Z,0.00
2019-04-30T02:35:34.026Z,0.00
2019-04-30T02:36:34.004Z,0.00
2019-04-30T02:37:33.993Z,0.00
2019-04-30T02:38:33.990Z,0.00
2019-04-30T02:39:33.989Z,0.00
2019-04-30T02:40:34.019Z,0.00
2019-04-30T02:41:34.004Z,0.00
2019-04-30T02:42:33.974Z,0.00
2019-04-30T02:43:33.965Z,0.00
2019-04-30T02:44:33.959Z,0.00
2019-04-30T02:45:33.959Z,0.00
2019-04-30T02:46:33.978Z,0.00
2019-04-30T02:47:33.946Z,0.00
2019-04-30T02:48:33.941Z,0.00
2019-04-30T02:49:33.941Z,0.00
2019-04-30T02:50:33.934Z,0.00
2019-04-30T02:51:33.975Z,0.00
2019-04-30T02:52:33.928Z,0.00
2019-04-30T02:53:33.922Z,0.00
2019-04-30T02:54:33.914Z,0.00
2019-04-30T02:55:33.907Z,0.00
2019-04-30T02:56:33.933Z,0.00
2019-04-30T02:57:33.902Z,0.00
2019-04-30T02:58:33.895Z,0.00
2019-04-30T02:59:33.895Z,0.00
2019-04-30T03:00:33.885Z,0.00
2019-04-30T03:01:33.908Z,0.00
2019-04-30T03:02:33.882Z,0.00
2019-04-30T03:03:33.872Z,0.00
2019-04-30T03:04:33.881Z,0.00
2019-04-30T03:05:33.867Z,0.00
2019-04-30T03:06:33.886Z,0.00
2019-04-30T03:07:33.847Z,0.00
2019-04-30T03:08:33.850Z,0.00
2019-04-30T03:09:33.843Z,0.00
2019-04-30T03:10:33.839Z,0.00
2019-04-30T03:11:33.880Z,0.00
2019-04-30T03:12:34.110Z,0.00
2019-04-30T03:13:34.193Z,0.00
2019-04-30T03:14:33.824Z,0.00
2019-04-30T03:15:33.807Z,0.00
2019-04-30T03:16:33.804Z,0.00
2019-04-30T03:17:33.829Z,0.00
2019-04-30T03:18:33.799Z,0.00
2019-04-30T03:19:33.794Z,0.00
2019-04-30T03:20:36.338Z,0.00
2019-04-30T03:21:33.819Z,0.00
2019-04-30T03:22:33.778Z,0.00
2019-04-30T03:23:33.770Z,0.00
2019-04-30T03:24:33.781Z,0.00
2019-04-30T03:25:33.762Z,0.00
2019-04-30T03:26:33.790Z,0.00
2019-04-30T03:27:33.753Z,0.00
2019-04-30T03:28:33.750Z,0.00
2019-04-30T03:29:33.775Z,0.00
2019-04-30T03:30:33.752Z,0.00
2019-04-30T03:31:33.744Z,0.00
2019-04-30T03:32:36.788Z,0.00
2019-04-30T03:33:33.734Z,0.00
2019-04-30T03:34:33.721Z,0.00
2019-04-30T03:35:33.712Z,0.00
2019-04-30T03:36:33.767Z,5.63
2019-04-30T03:37:33.698Z,5.63
2019-04-30T03:38:33.696Z,5.63
2019-04-30T03:39:34.298Z,5.63
2019-04-30T03:40:33.695Z,5.63
2019-04-30T03:41:33.680Z,5.63
2019-04-30T03:42:33.704Z,11.25
2019-04-30T03:43:33.685Z,11.25
2019-04-30T03:44:33.670Z,11.25
2019-04-30T03:45:33.660Z,11.25
2019-04-30T03:46:33.656Z,16.88
2019-04-30T03:47:33.684Z,16.88
2019-04-30T03:48:33.650Z,16.88
2019-04-30T03:49:33.639Z,22.50
2019-04-30T03:50:49.210Z,22.50
2019-04-30T03:51:33.629Z,28.13
2019-04-30T03:52:33.656Z,28.13
2019-04-30T03:53:33.617Z,28.13
2019-04-30T03:54:33.611Z,33.75
2019-04-30T03:55:33.608Z,33.75
2019-04-30T03:56:33.603Z,39.38
2019-04-30T03:57:33.632Z,39.38
2019-04-30T03:58:33.599Z,45.00
2019-04-30T03:59:33.593Z,45.00
2019-04-30T04:00:33.598Z,50.63
2019-04-30T04:01:33.577Z,56.25
2019-04-30T04:02:33.597Z,56.25
2019-04-30T04:03:33.566Z,61.88
2019-04-30T04:04:33.561Z,61.88
2019-04-30T04:05:33.565Z,67.50
2019-04-30T04:06:33.578Z,73.13
2019-04-30T04:07:33.541Z,73.13
2019-04-30T04:08:33.540Z,78.75
2019-04-30T04:09:33.533Z,84.38
2019-04-30T04:10:33.527Z,90.00
2019-04-30T04:11:33.569Z,90.00
2019-04-30T04:12:33.520Z,95.63
2019-04-30T04:13:33.518Z,101.25
2019-04-30T04:14:33.509Z,101.25
2019-04-30T04:15:33.532Z,106.88
2019-04-30T04:16:33.506Z,112.50
2019-04-30T04:17:33.522Z,118.13
2019-04-30T04:18:33.488Z,118.13
2019-04-30T04:19:33.485Z,123.75
2019-04-30T04:20:33.473Z,129.38
2019-04-30T04:21:33.468Z,129.38
2019-04-30T04:22:33.489Z,135.00
2019-04-30T04:23:33.471Z,140.63
2019-04-30T04:24:33.458Z,140.63
2019-04-30T04:25:33.451Z,146.25
2019-04-30T04:26:33.442Z,146.25
2019-04-30T04:27:33.478Z,151.88
2019-04-30T04:28:33.435Z,157.50
2019-04-30T04:29:33.431Z,163.13
2019-04-30T04:30:33.451Z,168.75
2019-04-30T04:31:33.419Z,168.75
2019-04-30T04:32:33.414Z,174.38
2019-04-30T04:33:33.432Z,180.00
2019-04-30T04:34:33.402Z,185.63
2019-04-30T04:35:33.398Z,191.25
2019-04-30T04:36:33.389Z,191.25
2019-04-30T04:37:33.426Z,196.88
2019-04-30T04:38:33.384Z,202.50
2019-04-30T04:39:33.415Z,213.75
2019-04-30T04:40:33.371Z,213.75
2019-04-30T04:41:33.368Z,225.00
2019-04-30T04:42:33.365Z,230.63
2019-04-30T04:43:33.387Z,236.25
2019-04-30T04:44:33.355Z,236.25
2019-04-30T04:45:33.354Z,236.25
2019-04-30T04:46:33.343Z,236.25
2019-04-30T04:47:33.355Z,236.25
2019-04-30T04:48:33.336Z,236.25
2019-04-30T04:49:33.326Z,236.25
2019-04-30T04:50:33.324Z,236.25
2019-04-30T04:51:38.441Z,241.88
2019-04-30T04:52:33.355Z,247.50
2019-04-30T04:53:33.312Z,275.63
2019-04-30T04:54:33.328Z,303.75
2019-04-30T04:55:33.299Z,315.00
2019-04-30T04:56:33.309Z,315.00
2019-04-30T04:57:33.293Z,320.63
2019-04-30T04:58:33.324Z,326.25
2019-04-30T04:59:33.287Z,337.50
2019-04-30T05:00:33.300Z,343.13
2019-04-30T05:01:33.276Z,348.75
2019-04-30T05:02:33.271Z,354.38
2019-04-30T05:03:33.264Z,360.00
2019-04-30T05:04:33.311Z,365.63
2019-04-30T05:05:33.252Z,365.63
2019-04-30T05:06:33.255Z,376.88
2019-04-30T05:07:33.247Z,376.88
2019-04-30T05:08:33.243Z,382.50
2019-04-30T05:09:33.263Z,382.50
2019-04-30T05:10:33.233Z,388.13
2019-04-30T05:11:33.227Z,393.75
2019-04-30T05:12:33.224Z,399.38
2019-04-30T05:13:34.694Z,405.00
2019-04-30T05:14:33.251Z,416.25
2019-04-30T05:15:33.212Z,416.25
2019-04-30T05:16:33.220Z,427.50
2019-04-30T05:17:33.200Z,438.75
2019-04-30T05:18:33.204Z,444.38
2019-04-30T05:19:33.222Z,438.75
2019-04-30T05:20:33.195Z,444.38
2019-04-30T05:21:42.025Z,450.00
2019-04-30T05:22:33.185Z,461.25
2019-04-30T05:23:33.182Z,472.50
2019-04-30T05:24:33.217Z,483.75
2019-04-30T05:25:33.177Z,495.00
2019-04-30T05:26:33.178Z,500.63
2019-04-30T05:27:33.174Z,506.25
2019-04-30T05:28:33.168Z,517.50
2019-04-30T05:29:33.192Z,540.00
2019-04-30T05:30:33.164Z,551.25
2019-04-30T05:31:33.160Z,551.25
2019-04-30T05:32:33.160Z,551.25
2019-04-30T05:33:33.167Z,551.25
2019-04-30T05:34:33.188Z,562.50
2019-04-30T05:35:33.148Z,568.13
2019-04-30T05:36:33.153Z,579.38
2019-04-30T05:37:33.146Z,579.38
2019-04-30T05:38:33.141Z,579.38
2019-04-30T05:39:33.168Z,579.38
2019-04-30T05:40:33.165Z,579.38
2019-04-30T05:41:33.138Z,585.00
2019-04-30T05:42:33.134Z,590.63
2019-04-30T05:43:33.134Z,607.50
2019-04-30T05:44:33.125Z,613.13
2019-04-30T05:45:33.778Z,641.25
2019-04-30T05:46:33.127Z,669.38
2019-04-30T05:47:33.125Z,703.13
2019-04-30T05:48:33.121Z,691.88
2019-04-30T05:49:33.117Z,630.00
2019-04-30T05:50:33.151Z,630.00
2019-04-30T05:51:33.118Z,630.00
2019-04-30T05:52:33.115Z,669.38
2019-04-30T05:53:33.109Z,669.38
2019-04-30T05:54:33.115Z,669.38
2019-04-30T05:55:33.134Z,658.13
2019-04-30T05:56:33.106Z,669.38
2019-04-30T05:57:33.101Z,663.75
2019-04-30T05:58:33.102Z,663.75
2019-04-30T05:59:33.102Z,669.38
2019-04-30T06:00:33.125Z,680.63
2019-04-30T06:01:33.093Z,680.63
2019-04-30T06:02:34.094Z,686.25
2019-04-30T06:03:33.435Z,697.50
2019-04-30T06:04:33.093Z,708.75
2019-04-30T06:05:33.117Z,731.25
2019-04-30T06:06:33.700Z,759.38
2019-04-30T06:07:33.085Z,765.00
2019-04-30T06:08:33.086Z,770.63
2019-04-30T06:09:34.076Z,798.75
2019-04-30T06:10:33.112Z,815.63
2019-04-30T06:11:33.086Z,821.25
2019-04-30T06:12:33.085Z,871.88
2019-04-30T06:13:33.076Z,1029.38
2019-04-30T06:14:33.079Z,1501.88
2019-04-30T06:15:33.121Z,1642.50
2019-04-30T06:16:33.074Z,1338.75
2019-04-30T06:17:33.098Z,995.63
2019-04-30T06:18:33.070Z,984.38
2019-04-30T06:19:33.070Z,916.88
2019-04-30T06:20:33.076Z,1310.63
2019-04-30T06:21:33.099Z,1288.13
2019-04-30T06:22:33.069Z,1012.50
2019-04-30T06:23:33.062Z,1051.88
2019-04-30T06:24:33.065Z,1023.75
2019-04-30T06:25:45.858Z,1029.38
2019-04-30T06:26:33.090Z,1074.38
2019-04-30T06:27:33.085Z,1125.00
2019-04-30T06:28:33.065Z,1158.75
2019-04-30T06:29:33.058Z,1130.63
2019-04-30T06:30:33.065Z,1203.75
2019-04-30T06:31:37.366Z,1226.25
2019-04-30T06:32:33.084Z,1231.88
2019-04-30T06:33:33.058Z,1310.63
2019-04-30T06:34:33.055Z,1378.13
2019-04-30T06:35:33.058Z,1383.75
2019-04-30T06:36:33.058Z,1327.50
2019-04-30T06:37:33.083Z,1434.38
2019-04-30T06:38:33.054Z,1569.38
2019-04-30T06:39:33.055Z,1535.63
2019-04-30T06:40:33.054Z,1591.88
2019-04-30T06:41:33.055Z,1586.25
2019-04-30T06:42:33.083Z,1670.63
2019-04-30T06:43:33.054Z,1738.13
2019-04-30T06:44:37.321Z,1743.75
2019-04-30T06:45:33.052Z,1833.75
2019-04-30T06:46:33.053Z,2008.13
2019-04-30T06:47:33.536Z,2086.88
2019-04-30T06:48:33.058Z,2176.88
2019-04-30T06:49:33.059Z,2182.50
2019-04-30T06:50:33.063Z,2171.25
2019-04-30T06:51:33.059Z,2109.38
2019-04-30T06:52:33.091Z,1963.13
2019-04-30T06:53:33.058Z,1963.13
2019-04-30T06:54:33.063Z,2013.75
2019-04-30T06:55:33.064Z,2036.25
2019-04-30T06:56:33.065Z,1991.25
2019-04-30T06:57:33.091Z,1906.88
2019-04-30T06:58:33.069Z,1811.25
2019-04-30T06:59:33.063Z,1738.13
2019-04-30T07:00:35.520Z,1788.75
2019-04-30T07:01:33.071Z,1895.63
2019-04-30T07:02:33.100Z,1968.75
2019-04-30T07:03:33.109Z,2064.38
2019-04-30T07:04:33.083Z,2255.63
2019-04-30T07:05:33.077Z,2289.38
2019-04-30T07:06:37.034Z,2092.50
2019-04-30T07:07:39.021Z,2176.88
2019-04-30T07:08:39.614Z,2497.50
2019-04-30T07:09:39.827Z,2778.75
2019-04-30T07:10:33.084Z,1417.50
2019-04-30T07:11:33.095Z,2750.63
2019-04-30T07:12:34.174Z,3093.75
2019-04-30T07:13:33.129Z,3076.88
2019-04-30T07:14:33.097Z,3330.00
2019-04-30T07:15:33.097Z,3465.00
2019-04-30T07:16:33.099Z,3504.38
2019-04-30T07:17:33.099Z,3684.38
2019-04-30T07:18:33.131Z,3560.63
2019-04-30T07:19:50.089Z,1676.25
2019-04-30T07:20:34.116Z,1530.00
2019-04-30T07:21:36.474Z,3279.38
2019-04-30T07:22:39.981Z,3144.38
2019-04-30T07:23:33.136Z,2801.25
2019-04-30T07:24:33.147Z,3391.88
2019-04-30T07:25:33.113Z,2846.25
2019-04-30T07:26:33.116Z,2154.38
2019-04-30T07:27:33.119Z,3735.00
2019-04-30T07:28:46.569Z,3436.88
2019-04-30T07:29:33.120Z,3532.50
2019-04-30T07:30:33.121Z,3571.88
2019-04-30T07:31:33.124Z,3178.13
2019-04-30T07:32:33.128Z,1333.13
2019-04-30T07:33:33.128Z,1518.75
2019-04-30T07:34:37.020Z,3251.25
2019-04-30T07:35:33.132Z,3121.88
2019-04-30T07:36:45.291Z,3110.63
2019-04-30T07:37:33.164Z,3268.13
2019-04-30T07:38:35.845Z,3442.50
2019-04-30T07:39:33.505Z,3785.63
2019-04-30T07:40:33.143Z,3504.38
2019-04-30T07:41:33.145Z,3121.88
2019-04-30T07:42:38.041Z,3301.88
2019-04-30T07:43:33.149Z,3431.25
2019-04-30T07:44:36.376Z,3307.50
2019-04-30T07:45:33.153Z,3245.63
2019-04-30T07:46:35.267Z,3420.00
2019-04-30T07:47:33.163Z,3133.13
2019-04-30T07:48:33.160Z,3138.75
2019-04-30T07:49:46.882Z,3110.63
2019-04-30T07:50:33.664Z,3200.63
2019-04-30T07:51:37.736Z,3307.50
2019-04-30T07:52:34.393Z,3538.13
2019-04-30T07:53:33.178Z,3414.38
2019-04-30T07:54:33.209Z,3127.50
2019-04-30T07:55:33.181Z,2829.38
2019-04-30T07:56:37.675Z,3391.88
2019-04-30T07:57:33.232Z,3397.50
2019-04-30T07:58:33.187Z,3414.38
2019-04-30T07:59:33.219Z,3459.38
2019-04-30T08:00:33.198Z,3420.00
2019-04-30T08:01:33.206Z,3285.00
2019-04-30T08:02:37.964Z,3369.38
2019-04-30T08:03:33.368Z,3493.13
2019-04-30T08:04:33.242Z,3363.75
2019-04-30T08:05:33.223Z,3403.13
2019-04-30T08:06:33.291Z,3420.00
2019-04-30T08:07:33.271Z,3369.38
2019-04-30T08:08:33.274Z,3577.50
2019-04-30T08:09:39.697Z,3262.50
2019-04-30T08:10:33.891Z,3223.13
2019-04-30T08:11:34.521Z,3487.50
2019-04-30T08:12:36.756Z,3453.75
2019-04-30T08:13:33.835Z,3600.00
2019-04-30T08:14:33.290Z,3628.13
2019-04-30T08:15:33.286Z,3588.75
2019-04-30T08:16:33.268Z,3470.63
2019-04-30T08:17:33.270Z,3414.38
2019-04-30T08:18:33.276Z,3386.25
2019-04-30T08:19:33.273Z,3746.25
2019-04-30T08:20:33.306Z,3870.00
2019-04-30T08:21:33.305Z,3549.38
2019-04-30T08:22:33.290Z,3549.38
2019-04-30T08:23:37.001Z,3577.50
2019-04-30T08:24:33.310Z,3588.75
2019-04-30T08:25:33.358Z,3909.38
2019-04-30T08:26:33.317Z,3819.38
2019-04-30T08:27:33.324Z,3695.63
2019-04-30T08:28:33.327Z,3538.13
2019-04-30T08:29:33.359Z,3751.88
2019-04-30T08:30:33.423Z,4320.00
2019-04-30T08:31:33.349Z,3532.50
2019-04-30T08:32:33.352Z,3217.50
2019-04-30T08:33:33.359Z,3526.88
2019-04-30T08:34:33.395Z,3746.25
2019-04-30T08:35:33.396Z,3841.88
2019-04-30T08:36:33.379Z,3948.75
2019-04-30T08:37:33.383Z,4078.13
2019-04-30T08:38:33.394Z,3774.38
2019-04-30T08:39:33.396Z,3673.13
2019-04-30T08:40:33.431Z,3695.63
2019-04-30T08:41:33.413Z,3791.25
2019-04-30T08:42:34.604Z,4016.25
2019-04-30T08:43:33.423Z,3853.13
2019-04-30T08:44:33.431Z,3723.75
2019-04-30T08:45:34.876Z,3982.50
2019-04-30T08:46:33.447Z,4100.63
2019-04-30T08:47:33.451Z,3729.38
2019-04-30T08:48:49.913Z,3616.88
2019-04-30T08:49:33.735Z,3768.75
2019-04-30T08:50:33.534Z,3571.88
2019-04-30T08:51:33.683Z,3543.75
2019-04-30T08:52:33.509Z,3802.50
2019-04-30T08:53:34.050Z,4038.75
2019-04-30T08:54:34.704Z,4218.75
2019-04-30T08:55:33.561Z,4021.88
2019-04-30T08:56:33.524Z,3673.13
2019-04-30T08:57:33.531Z,3830.63
2019-04-30T08:58:33.540Z,4145.63
2019-04-30T08:59:33.553Z,4190.63
2019-04-30T09:00:33.584Z,3836.25
2019-04-30T09:01:33.566Z,3943.13
2019-04-30T09:02:33.580Z,4038.75
2019-04-30T09:03:33.585Z,3915.00
2019-04-30T09:04:33.592Z,4055.63
2019-04-30T09:05:33.628Z,4050.00
2019-04-30T09:06:33.652Z,3853.13
2019-04-30T09:07:33.620Z,3915.00
2019-04-30T09:08:33.629Z,4252.50
2019-04-30T09:09:33.636Z,4471.88
2019-04-30T09:10:33.678Z,3943.13
2019-04-30T09:11:43.002Z,3926.25
2019-04-30T09:12:33.669Z,4201.88
2019-04-30T09:13:33.676Z,4179.38
2019-04-30T09:14:33.685Z,4190.63
2019-04-30T09:15:33.725Z,4466.25
2019-04-30T09:16:33.768Z,4365.00
2019-04-30T09:17:33.719Z,4089.38
2019-04-30T09:18:33.725Z,3993.75
2019-04-30T09:19:33.743Z,3886.88
2019-04-30T09:20:33.772Z,4066.88
2019-04-30T09:21:33.782Z,4370.63
2019-04-30T09:22:33.768Z,4140.00
2019-04-30T09:23:43.961Z,4066.88
2019-04-30T09:24:33.789Z,4365.00
2019-04-30T09:25:33.825Z,4342.50
2019-04-30T09:26:33.833Z,4201.88
2019-04-30T09:27:33.832Z,3965.63
2019-04-30T09:28:33.829Z,4038.75
2019-04-30T09:29:33.838Z,4387.50
2019-04-30T09:30:33.882Z,4449.38
2019-04-30T09:31:33.906Z,4078.13
2019-04-30T09:32:33.869Z,3999.38
2019-04-30T09:33:33.879Z,4415.63
2019-04-30T09:34:33.892Z,4162.50
2019-04-30T09:35:33.936Z,4095.00
2019-04-30T09:36:33.919Z,4173.75
2019-04-30T09:37:33.923Z,4100.63
2019-04-30T09:38:33.936Z,4117.50
2019-04-30T09:39:33.949Z,4314.38
2019-04-30T09:40:33.986Z,4353.75
2019-04-30T09:41:33.969Z,4190.63
2019-04-30T09:42:33.984Z,4027.50
2019-04-30T09:43:33.990Z,3813.75
2019-04-30T09:44:34.001Z,3622.50
2019-04-30T09:45:34.042Z,3836.25
2019-04-30T09:46:34.026Z,4201.88
2019-04-30T09:47:34.066Z,4173.75
2019-04-30T09:48:34.054Z,4083.75
2019-04-30T09:49:34.065Z,4168.13
2019-04-30T09:50:34.732Z,4162.50
2019-04-30T09:51:34.269Z,4179.38
2019-04-30T09:52:36.124Z,4297.50
2019-04-30T09:53:34.142Z,4516.88
2019-04-30T09:54:34.114Z,4370.63
2019-04-30T09:55:34.166Z,4190.63
2019-04-30T09:56:34.151Z,4578.75
2019-04-30T09:57:34.159Z,4680.00
2019-04-30T09:58:34.168Z,4218.75
2019-04-30T09:59:34.182Z,4027.50
2019-04-30T10:00:34.225Z,4314.38
2019-04-30T10:01:34.211Z,4415.63
2019-04-30T10:02:34.215Z,4708.13
2019-04-30T10:03:34.968Z,4758.75
2019-04-30T10:04:34.377Z,4376.25
2019-04-30T10:05:34.284Z,4128.75
2019-04-30T10:06:39.502Z,3971.25
2019-04-30T10:07:34.275Z,4050.00
2019-04-30T10:08:46.102Z,4213.13
2019-04-30T10:09:34.309Z,4325.63
2019-04-30T10:10:34.424Z,4533.75
2019-04-30T10:11:34.331Z,4674.38
2019-04-30T10:12:34.344Z,4331.25
2019-04-30T10:13:34.350Z,4213.13
2019-04-30T10:14:34.370Z,4235.63
2019-04-30T10:15:34.410Z,4438.13
2019-04-30T10:16:34.391Z,4443.75
2019-04-30T10:17:34.402Z,4168.13
2019-04-30T10:18:34.421Z,4156.88
2019-04-30T10:19:34.429Z,4443.75
2019-04-30T10:20:34.470Z,4663.13
2019-04-30T10:21:34.452Z,4370.63
2019-04-30T10:22:34.464Z,4117.50
2019-04-30T10:23:34.479Z,4156.88
2019-04-30T10:24:34.492Z,4336.88
2019-04-30T10:25:34.533Z,4449.38
2019-04-30T10:26:34.516Z,4978.13
2019-04-30T10:27:34.528Z,4916.25
2019-04-30T10:28:34.574Z,4393.13
2019-04-30T10:29:34.556Z,4488.75
2019-04-30T10:30:34.657Z,4567.50
2019-04-30T10:31:34.609Z,4438.13
2019-04-30T10:32:34.597Z,4398.75
2019-04-30T10:33:34.609Z,4336.88
2019-04-30T10:34:34.626Z,4410.00
2019-04-30T10:35:34.661Z,4601.25
2019-04-30T10:36:34.675Z,4646.25
2019-04-30T10:37:34.662Z,4477.50
2019-04-30T10:38:34.678Z,4640.63
2019-04-30T10:39:34.693Z,4882.50
2019-04-30T10:40:34.729Z,4601.25
2019-04-30T10:41:34.742Z,4179.38
2019-04-30T10:42:34.956Z,4156.88
2019-04-30T10:43:34.742Z,4359.38
2019-04-30T10:44:34.754Z,4286.25
2019-04-30T10:45:34.793Z,4336.88
2019-04-30T10:46:34.805Z,4803.75
2019-04-30T10:47:34.797Z,4606.88
2019-04-30T10:48:34.807Z,4353.75
2019-04-30T10:49:34.831Z,4584.38
2019-04-30T10:50:34.886Z,4511.25
2019-04-30T10:51:34.874Z,4370.63
2019-04-30T10:52:34.866Z,4263.75
2019-04-30T10:53:34.875Z,4207.50
2019-04-30T10:54:34.887Z,4218.75
2019-04-30T10:55:34.932Z,4674.38
2019-04-30T10:56:34.942Z,4708.13
2019-04-30T10:57:34.931Z,4241.25
2019-04-30T10:58:34.938Z,4111.88
2019-04-30T10:59:34.955Z,4078.13
2019-04-30T11:00:34.997Z,4213.13
2019-04-30T11:01:35.008Z,4207.50
2019-04-30T11:02:35.000Z,4021.88
2019-04-30T11:03:35.017Z,4106.25
2019-04-30T11:04:35.029Z,4179.38
2019-04-30T11:05:35.082Z,4168.13
2019-04-30T11:06:35.083Z,4426.88
2019-04-30T11:07:35.072Z,4460.63
2019-04-30T11:08:35.081Z,4438.13
2019-04-30T11:09:35.095Z,4545.00
2019-04-30T11:10:35.220Z,4275.00
2019-04-30T11:11:35.147Z,4275.00
2019-04-30T11:12:35.136Z,4567.50
2019-04-30T11:13:35.152Z,4533.75
2019-04-30T11:14:35.165Z,4336.88
2019-04-30T11:15:35.179Z,4353.75
2019-04-30T11:16:35.220Z,4336.88
2019-04-30T11:17:35.343Z,4286.25
2019-04-30T11:18:35.374Z,4370.63
2019-04-30T11:19:35.366Z,4516.88
2019-04-30T11:20:35.312Z,4460.63
2019-04-30T11:21:35.483Z,4263.75
2019-04-30T11:22:35.443Z,4111.88
2019-04-30T11:23:35.391Z,4269.38
2019-04-30T11:24:37.997Z,4668.75
2019-04-30T11:25:35.708Z,4820.63
2019-04-30T11:26:35.735Z,4528.13
2019-04-30T11:27:35.924Z,4038.75
2019-04-30T11:28:35.517Z,4027.50
2019-04-30T11:29:35.467Z,4258.13
2019-04-30T11:30:35.682Z,4348.13
2019-04-30T11:31:35.656Z,4438.13
2019-04-30T11:32:35.640Z,4365.00
2019-04-30T11:33:35.556Z,4213.13
2019-04-30T11:34:35.449Z,4280.63
2019-04-30T11:35:35.465Z,4449.38
2019-04-30T11:36:35.506Z,4432.50
2019-04-30T11:37:35.521Z,4055.63
2019-04-30T11:38:35.509Z,3915.00
2019-04-30T11:39:36.474Z,4106.25
2019-04-30T11:40:37.959Z,4168.13
2019-04-30T11:41:35.574Z,4173.75
2019-04-30T11:42:35.602Z,4336.88
2019-04-30T11:43:35.583Z,4297.50
2019-04-30T11:44:35.604Z,4100.63
2019-04-30T11:45:35.610Z,3960.00
2019-04-30T11:46:35.654Z,3819.38
2019-04-30T11:47:35.671Z,4145.63
2019-04-30T11:48:35.655Z,4387.50
2019-04-30T11:49:35.665Z,3993.75
2019-04-30T11:50:36.474Z,4016.25
2019-04-30T11:51:35.723Z,4072.50
2019-04-30T11:52:35.740Z,4055.63
2019-04-30T11:53:35.737Z,4140.00
2019-04-30T11:54:35.736Z,3988.13
2019-04-30T11:55:35.757Z,3886.88
2019-04-30T11:56:38.297Z,4072.50
2019-04-30T11:57:35.811Z,4213.13
2019-04-30T11:58:35.803Z,4111.88
2019-04-30T11:59:35.816Z,3819.38
2019-04-30T12:00:35.826Z,3690.00
2019-04-30T12:01:35.864Z,3825.00
2019-04-30T12:02:35.879Z,4027.50
2019-04-30T12:03:35.939Z,4072.50
2019-04-30T12:04:35.876Z,4095.00
2019-04-30T12:05:35.892Z,4050.00
2019-04-30T12:06:35.937Z,4145.63
2019-04-30T12:07:35.929Z,4061.25
2019-04-30T12:08:35.936Z,3909.38
2019-04-30T12:09:35.959Z,3785.63
2019-04-30T12:10:36.494Z,3926.25
2019-04-30T12:11:36.004Z,4263.75
2019-04-30T12:12:35.996Z,4258.13
2019-04-30T12:13:36.004Z,4100.63
2019-04-30T12:14:36.023Z,3858.75
2019-04-30T12:15:36.033Z,3993.75
2019-04-30T12:16:36.074Z,4145.63
2019-04-30T12:17:36.057Z,4083.75
2019-04-30T12:18:36.073Z,3993.75
2019-04-30T12:19:36.091Z,4100.63
2019-04-30T12:20:36.103Z,4230.00
2019-04-30T12:21:36.141Z,4100.63
2019-04-30T12:22:36.160Z,4089.38
2019-04-30T12:23:36.145Z,4072.50
2019-04-30T12:24:36.151Z,4123.13
2019-04-30T12:25:36.165Z,4111.88
2019-04-30T12:26:36.234Z,4151.25
2019-04-30T12:27:38.671Z,3875.63
2019-04-30T12:28:36.244Z,3830.63
2019-04-30T12:29:36.220Z,4258.13
2019-04-30T12:30:39.048Z,4168.13
2019-04-30T12:31:36.274Z,3982.50